sensor_id;sensor_type;location;lat;lon;timestamp;P1;durP1;ratioP1;P2;durP2;ratioP2
4603;SDS011;2314;48.272;11.562;2022-08-19T00:02:02;124.93;;;10.53;;
4603;SDS011;2314;48.272;11.562;2022-08-19T00:04:30;122.50;;;9.33;;
4603;SDS011;2314;48.272;11.562;2022-08-19T00:07:03;122.57;;;9.60;;
4603;SDS011;2314;48.272;11.562;2022-08-19T00:09:31;122.60;;;9.80;;
4603;SDS011;2314;48.272;11.562;2022-08-19T00:11:58;122.77;;;9.37;;
4603;SDS011;2314;48.272;11.562;2022-08-19T00:14:28;121.30;;;9.20;;
4603;SDS011;2314;48.272;11.562;2022-08-19T00:16:56;121.27;;;9.33;;
4603;SDS011;2314;48.272;11.562;2022-08-19T00:19:23;121.17;;;8.90;;
4603;SDS011;2314;48.272;11.562;2022-08-19T00:21:51;122.63;;;9.90;;
4603;SDS011;2314;48.272;11.562;2022-08-19T00:24:20;121.67;;;8.93;;
4603;SDS011;2314;48.272;11.562;2022-08-19T00:26:48;121.20;;;7.87;;
4603;SDS011;2314;48.272;11.562;2022-08-19T00:29:16;123.00;;;9.50;;
4603;SDS011;2314;48.272;11.562;2022-08-19T00:31:46;122.50;;;8.40;;
4603;SDS011;2314;48.272;11.562;2022-08-19T00:34:15;123.10;;;8.80;;
4603;SDS011;2314;48.272;11.562;2022-08-19T00:36:42;121.17;;;9.00;;
4603;SDS011;2314;48.272;11.562;2022-08-19T00:39:09;121.23;;;8.73;;
4603;SDS011;2314;48.272;11.562;2022-08-19T00:41:37;120.67;;;8.50;;
4603;SDS011;2314;48.272;11.562;2022-08-19T00:44:11;120.00;;;8.20;;
4603;SDS011;2314;48.272;11.562;2022-08-19T00:46:41;121.17;;;9.07;;
4603;SDS011;2314;48.272;11.562;2022-08-19T00:49:13;122.27;;;9.77;;
4603;SDS011;2314;48.272;11.562;2022-08-19T00:51:48;120.10;;;8.40;;
4603;SDS011;2314;48.272;11.562;2022-08-19T00:54:20;121.40;;;9.67;;
4603;SDS011;2314;48.272;11.562;2022-08-19T00:56:47;123.93;;;10.47;;
4603;SDS011;2314;48.272;11.562;2022-08-19T00:59:19;122.97;;;10.33;;
4603;SDS011;2314;48.272;11.562;2022-08-19T01:01:47;127.40;;;10.50;;
4603;SDS011;2314;48.272;11.562;2022-08-19T01:04:16;122.30;;;9.70;;
4603;SDS011;2314;48.272;11.562;2022-08-19T01:06:43;123.37;;;10.60;;
4603;SDS011;2314;48.272;11.562;2022-08-19T01:09:10;125.20;;;12.00;;
4603;SDS011;2314;48.272;11.562;2022-08-19T01:11:38;124.83;;;11.50;;
4603;SDS011;2314;48.272;11.562;2022-08-19T01:14:09;126.30;;;10.90;;
4603;SDS011;2314;48.272;11.562;2022-08-19T01:16:37;124.50;;;11.50;;
4603;SDS011;2314;48.272;11.562;2022-08-19T01:19:09;125.90;;;12.10;;
4603;SDS011;2314;48.272;11.562;2022-08-19T01:21:46;126.97;;;11.07;;
4603;SDS011;2314;48.272;11.562;2022-08-19T01:24:20;127.20;;;11.77;;
4603;SDS011;2314;48.272;11.562;2022-08-19T01:26:47;125.43;;;12.17;;
4603;SDS011;2314;48.272;11.562;2022-08-19T01:29:14;124.33;;;11.20;;
4603;SDS011;2314;48.272;11.562;2022-08-19T01:31:42;125.17;;;10.90;;
4603;SDS011;2314;48.272;11.562;2022-08-19T01:34:09;124.40;;;11.10;;
4603;SDS011;2314;48.272;11.562;2022-08-19T01:36:38;124.17;;;11.27;;
4603;SDS011;2314;48.272;11.562;2022-08-19T01:39:12;125.50;;;12.13;;
4603;SDS011;2314;48.272;11.562;2022-08-19T01:41:43;126.70;;;12.17;;
4603;SDS011;2314;48.272;11.562;2022-08-19T01:44:10;125.47;;;12.17;;
4603;SDS011;2314;48.272;11.562;2022-08-19T01:46:38;127.20;;;12.50;;
4603;SDS011;2314;48.272;11.562;2022-08-19T01:49:06;127.40;;;12.90;;
4603;SDS011;2314;48.272;11.562;2022-08-19T01:51:34;129.97;;;13.37;;
4603;SDS011;2314;48.272;11.562;2022-08-19T01:54:02;126.50;;;12.50;;
4603;SDS011;2314;48.272;11.562;2022-08-19T01:56:29;127.77;;;13.43;;
4603;SDS011;2314;48.272;11.562;2022-08-19T01:58:59;129.40;;;14.50;;
4603;SDS011;2314;48.272;11.562;2022-08-19T02:01:30;130.17;;;14.30;;
4603;SDS011;2314;48.272;11.562;2022-08-19T02:03:57;131.03;;;13.93;;
4603;SDS011;2314;48.272;11.562;2022-08-19T02:06:25;128.30;;;14.20;;
4603;SDS011;2314;48.272;11.562;2022-08-19T02:08:52;128.80;;;14.33;;
4603;SDS011;2314;48.272;11.562;2022-08-19T02:11:20;128.17;;;13.57;;
4603;SDS011;2314;48.272;11.562;2022-08-19T02:13:51;130.10;;;14.00;;
4603;SDS011;2314;48.272;11.562;2022-08-19T02:16:20;129.27;;;14.23;;
4603;SDS011;2314;48.272;11.562;2022-08-19T02:18:48;130.57;;;14.70;;
4603;SDS011;2314;48.272;11.562;2022-08-19T02:21:16;131.37;;;14.90;;
4603;SDS011;2314;48.272;11.562;2022-08-19T02:23:44;129.00;;;14.30;;
4603;SDS011;2314;48.272;11.562;2022-08-19T02:26:11;126.27;;;12.80;;
4603;SDS011;2314;48.272;11.562;2022-08-19T02:28:39;129.67;;;13.50;;
4603;SDS011;2314;48.272;11.562;2022-08-19T02:31:09;128.17;;;13.80;;
4603;SDS011;2314;48.272;11.562;2022-08-19T02:33:38;128.00;;;13.53;;
4603;SDS011;2314;48.272;11.562;2022-08-19T02:36:06;128.77;;;13.30;;
4603;SDS011;2314;48.272;11.562;2022-08-19T02:38:35;128.40;;;13.30;;
4603;SDS011;2314;48.272;11.562;2022-08-19T02:41:03;126.70;;;13.30;;
4603;SDS011;2314;48.272;11.562;2022-08-19T02:43:35;125.17;;;12.90;;
4603;SDS011;2314;48.272;11.562;2022-08-19T02:46:10;125.77;;;13.17;;
4603;SDS011;2314;48.272;11.562;2022-08-19T02:48:41;127.67;;;12.37;;
4603;SDS011;2314;48.272;11.562;2022-08-19T02:51:08;124.33;;;12.17;;
4603;SDS011;2314;48.272;11.562;2022-08-19T02:53:42;130.20;;;13.77;;
4603;SDS011;2314;48.272;11.562;2022-08-19T02:56:09;124.17;;;12.37;;
4603;SDS011;2314;48.272;11.562;2022-08-19T02:58:36;132.10;;;13.07;;
4603;SDS011;2314;48.272;11.562;2022-08-19T03:01:04;128.87;;;15.17;;
4603;SDS011;2314;48.272;11.562;2022-08-19T03:03:31;133.33;;;13.77;;
4603;SDS011;2314;48.272;11.562;2022-08-19T03:06:04;126.90;;;13.30;;
4603;SDS011;2314;48.272;11.562;2022-08-19T03:08:35;126.63;;;13.63;;
4603;SDS011;2314;48.272;11.562;2022-08-19T03:11:03;127.77;;;13.00;;
4603;SDS011;2314;48.272;11.562;2022-08-19T03:13:30;130.27;;;13.53;;
4603;SDS011;2314;48.272;11.562;2022-08-19T03:15:58;127.83;;;14.50;;
4603;SDS011;2314;48.272;11.562;2022-08-19T03:18:25;129.33;;;14.43;;
4603;SDS011;2314;48.272;11.562;2022-08-19T03:20:52;126.20;;;13.10;;
4603;SDS011;2314;48.272;11.562;2022-08-19T03:23:21;126.50;;;13.13;;
4603;SDS011;2314;48.272;11.562;2022-08-19T03:25:50;132.03;;;15.73;;
4603;SDS011;2314;48.272;11.562;2022-08-19T03:28:19;127.07;;;13.70;;
4603;SDS011;2314;48.272;11.562;2022-08-19T03:30:56;126.20;;;13.67;;
4603;SDS011;2314;48.272;11.562;2022-08-19T03:33:25;125.47;;;13.30;;
4603;SDS011;2314;48.272;11.562;2022-08-19T03:36:04;124.70;;;13.00;;
4603;SDS011;2314;48.272;11.562;2022-08-19T03:38:36;122.60;;;12.00;;
4603;SDS011;2314;48.272;11.562;2022-08-19T03:41:06;127.30;;;13.40;;
4603;SDS011;2314;48.272;11.562;2022-08-19T03:43:37;126.97;;;14.20;;
4603;SDS011;2314;48.272;11.562;2022-08-19T03:46:07;130.17;;;14.20;;
4603;SDS011;2314;48.272;11.562;2022-08-19T03:48:37;126.07;;;13.60;;
4603;SDS011;2314;48.272;11.562;2022-08-19T03:51:05;127.83;;;13.60;;
4603;SDS011;2314;48.272;11.562;2022-08-19T03:53:34;126.07;;;13.03;;
4603;SDS011;2314;48.272;11.562;2022-08-19T03:56:03;129.43;;;14.70;;
4603;SDS011;2314;48.272;11.562;2022-08-19T03:58:30;128.70;;;14.17;;
4603;SDS011;2314;48.272;11.562;2022-08-19T04:00:57;124.50;;;13.73;;
4603;SDS011;2314;48.272;11.562;2022-08-19T04:03:25;129.50;;;12.67;;
4603;SDS011;2314;48.272;11.562;2022-08-19T04:05:52;128.17;;;14.23;;
4603;SDS011;2314;48.272;11.562;2022-08-19T04:08:19;124.47;;;12.17;;
4603;SDS011;2314;48.272;11.562;2022-08-19T04:10:49;130.50;;;14.57;;
4603;SDS011;2314;48.272;11.562;2022-08-19T04:13:16;129.90;;;14.63;;
4603;SDS011;2314;48.272;11.562;2022-08-19T04:15:45;128.37;;;14.60;;
4603;SDS011;2314;48.272;11.562;2022-08-19T04:18:12;128.80;;;15.23;;
4603;SDS011;2314;48.272;11.562;2022-08-19T04:20:41;127.87;;;14.43;;
4603;SDS011;2314;48.272;11.562;2022-08-19T04:23:09;131.60;;;15.07;;
4603;SDS011;2314;48.272;11.562;2022-08-19T04:25:37;127.63;;;15.10;;
4603;SDS011;2314;48.272;11.562;2022-08-19T04:28:08;127.10;;;14.50;;
4603;SDS011;2314;48.272;11.562;2022-08-19T04:30:38;128.57;;;15.03;;
4603;SDS011;2314;48.272;11.562;2022-08-19T04:33:07;132.50;;;16.07;;
4603;SDS011;2314;48.272;11.562;2022-08-19T04:35:36;132.77;;;15.80;;
4603;SDS011;2314;48.272;11.562;2022-08-19T04:38:06;130.00;;;15.20;;
4603;SDS011;2314;48.272;11.562;2022-08-19T04:40:34;131.83;;;15.30;;
4603;SDS011;2314;48.272;11.562;2022-08-19T04:43:25;128.20;;;14.87;;
4603;SDS011;2314;48.272;11.562;2022-08-19T04:45:52;129.10;;;15.60;;
4603;SDS011;2314;48.272;11.562;2022-08-19T04:48:20;127.50;;;14.50;;
4603;SDS011;2314;48.272;11.562;2022-08-19T04:50:51;129.57;;;14.30;;
4603;SDS011;2314;48.272;11.562;2022-08-19T04:53:22;129.60;;;15.03;;
4603;SDS011;2314;48.272;11.562;2022-08-19T04:55:53;129.00;;;13.97;;
4603;SDS011;2314;48.272;11.562;2022-08-19T04:58:21;128.27;;;14.80;;
4603;SDS011;2314;48.272;11.562;2022-08-19T05:00:49;125.23;;;13.10;;
4603;SDS011;2314;48.272;11.562;2022-08-19T05:03:17;126.17;;;13.57;;
4603;SDS011;2314;48.272;11.562;2022-08-19T05:05:44;129.70;;;15.23;;
4603;SDS011;2314;48.272;11.562;2022-08-19T05:08:14;127.40;;;13.87;;
4603;SDS011;2314;48.272;11.562;2022-08-19T05:10:45;127.47;;;14.53;;
4603;SDS011;2314;48.272;11.562;2022-08-19T05:13:15;125.70;;;13.00;;
4603;SDS011;2314;48.272;11.562;2022-08-19T05:15:45;126.73;;;14.20;;
4603;SDS011;2314;48.272;11.562;2022-08-19T05:18:23;126.07;;;14.20;;
4603;SDS011;2314;48.272;11.562;2022-08-19T05:21:08;124.67;;;13.53;;
4603;SDS011;2314;48.272;11.562;2022-08-19T05:23:55;125.70;;;14.37;;
4603;SDS011;2314;48.272;11.562;2022-08-19T05:26:22;125.90;;;13.73;;
4603;SDS011;2314;48.272;11.562;2022-08-19T05:28:50;127.47;;;15.00;;
4603;SDS011;2314;48.272;11.562;2022-08-19T05:31:19;126.97;;;13.10;;
4603;SDS011;2314;48.272;11.562;2022-08-19T05:33:47;130.57;;;14.83;;
4603;SDS011;2314;48.272;11.562;2022-08-19T05:36:15;127.67;;;14.07;;
4603;SDS011;2314;48.272;11.562;2022-08-19T05:38:43;128.67;;;15.57;;
4603;SDS011;2314;48.272;11.562;2022-08-19T05:41:10;126.20;;;14.30;;
4603;SDS011;2314;48.272;11.562;2022-08-19T05:43:39;131.83;;;15.43;;
4603;SDS011;2314;48.272;11.562;2022-08-19T05:46:07;128.77;;;15.10;;
4603;SDS011;2314;48.272;11.562;2022-08-19T05:48:35;131.20;;;15.37;;
4603;SDS011;2314;48.272;11.562;2022-08-19T05:51:04;126.57;;;13.93;;
4603;SDS011;2314;48.272;11.562;2022-08-19T05:53:33;129.10;;;15.80;;
4603;SDS011;2314;48.272;11.562;2022-08-19T05:56:03;127.77;;;13.50;;
4603;SDS011;2314;48.272;11.562;2022-08-19T05:58:30;129.50;;;15.20;;
4603;SDS011;2314;48.272;11.562;2022-08-19T06:00:58;127.80;;;14.13;;
4603;SDS011;2314;48.272;11.562;2022-08-19T06:03:29;129.20;;;15.80;;
4603;SDS011;2314;48.272;11.562;2022-08-19T06:05:59;126.53;;;15.73;;
4603;SDS011;2314;48.272;11.562;2022-08-19T06:08:27;128.03;;;14.90;;
4603;SDS011;2314;48.272;11.562;2022-08-19T06:10:55;129.70;;;14.30;;
4603;SDS011;2314;48.272;11.562;2022-08-19T06:13:22;127.90;;;14.80;;
4603;SDS011;2314;48.272;11.562;2022-08-19T06:15:50;126.10;;;14.07;;
4603;SDS011;2314;48.272;11.562;2022-08-19T06:18:18;128.70;;;15.83;;
4603;SDS011;2314;48.272;11.562;2022-08-19T06:20:45;127.50;;;15.23;;
4603;SDS011;2314;48.272;11.562;2022-08-19T06:23:15;125.83;;;13.83;;
4603;SDS011;2314;48.272;11.562;2022-08-19T06:25:42;124.60;;;13.37;;
4603;SDS011;2314;48.272;11.562;2022-08-19T06:28:09;129.20;;;14.33;;
4603;SDS011;2314;48.272;11.562;2022-08-19T06:30:36;129.00;;;15.50;;
4603;SDS011;2314;48.272;11.562;2022-08-19T06:33:03;130.20;;;17.17;;
4603;SDS011;2314;48.272;11.562;2022-08-19T06:35:30;130.40;;;15.70;;
4603;SDS011;2314;48.272;11.562;2022-08-19T06:37:57;130.07;;;16.07;;
4603;SDS011;2314;48.272;11.562;2022-08-19T06:40:25;132.43;;;18.23;;
4603;SDS011;2314;48.272;11.562;2022-08-19T06:42:53;134.67;;;18.27;;
4603;SDS011;2314;48.272;11.562;2022-08-19T06:45:21;130.53;;;16.90;;
4603;SDS011;2314;48.272;11.562;2022-08-19T06:47:48;136.17;;;18.93;;
4603;SDS011;2314;48.272;11.562;2022-08-19T06:50:17;138.30;;;18.60;;
4603;SDS011;2314;48.272;11.562;2022-08-19T06:52:44;137.73;;;19.17;;
4603;SDS011;2314;48.272;11.562;2022-08-19T06:55:11;133.70;;;19.47;;
4603;SDS011;2314;48.272;11.562;2022-08-19T06:57:40;138.37;;;20.30;;
4603;SDS011;2314;48.272;11.562;2022-08-19T07:00:08;135.67;;;18.17;;
4603;SDS011;2314;48.272;11.562;2022-08-19T07:02:36;133.30;;;18.20;;
4603;SDS011;2314;48.272;11.562;2022-08-19T07:05:03;132.43;;;18.27;;
4603;SDS011;2314;48.272;11.562;2022-08-19T07:07:32;134.97;;;20.33;;
4603;SDS011;2314;48.272;11.562;2022-08-19T07:10:00;141.60;;;21.37;;
4603;SDS011;2314;48.272;11.562;2022-08-19T07:12:28;136.47;;;20.50;;
4603;SDS011;2314;48.272;11.562;2022-08-19T07:15:00;143.70;;;22.57;;
4603;SDS011;2314;48.272;11.562;2022-08-19T07:17:27;147.27;;;24.30;;
4603;SDS011;2314;48.272;11.562;2022-08-19T07:19:54;151.67;;;23.43;;
4603;SDS011;2314;48.272;11.562;2022-08-19T07:22:21;141.57;;;23.20;;
4603;SDS011;2314;48.272;11.562;2022-08-19T07:24:48;145.47;;;24.43;;
4603;SDS011;2314;48.272;11.562;2022-08-19T07:27:15;150.27;;;25.90;;
4603;SDS011;2314;48.272;11.562;2022-08-19T07:29:43;155.80;;;29.17;;
4603;SDS011;2314;48.272;11.562;2022-08-19T07:32:12;156.00;;;29.53;;
4603;SDS011;2314;48.272;11.562;2022-08-19T07:34:39;157.10;;;29.97;;
4603;SDS011;2314;48.272;11.562;2022-08-19T07:37:06;157.93;;;30.57;;
4603;SDS011;2314;48.272;11.562;2022-08-19T07:39:34;156.50;;;28.03;;
4603;SDS011;2314;48.272;11.562;2022-08-19T07:42:05;151.77;;;28.50;;
4603;SDS011;2314;48.272;11.562;2022-08-19T07:44:35;152.40;;;26.30;;
4603;SDS011;2314;48.272;11.562;2022-08-19T07:47:04;154.67;;;26.10;;
4603;SDS011;2314;48.272;11.562;2022-08-19T07:49:33;151.33;;;28.53;;
4603;SDS011;2314;48.272;11.562;2022-08-19T07:52:02;148.50;;;27.53;;
4603;SDS011;2314;48.272;11.562;2022-08-19T07:54:33;148.80;;;28.63;;
4603;SDS011;2314;48.272;11.562;2022-08-19T07:57:03;159.10;;;30.13;;
4603;SDS011;2314;48.272;11.562;2022-08-19T07:59:31;157.67;;;29.80;;
4603;SDS011;2314;48.272;11.562;2022-08-19T08:01:58;157.53;;;30.70;;
4603;SDS011;2314;48.272;11.562;2022-08-19T08:04:27;158.60;;;32.73;;
4603;SDS011;2314;48.272;11.562;2022-08-19T08:07:15;156.67;;;31.27;;
4603;SDS011;2314;48.272;11.562;2022-08-19T08:10:00;157.97;;;32.30;;
4603;SDS011;2314;48.272;11.562;2022-08-19T08:12:30;161.93;;;32.70;;
4603;SDS011;2314;48.272;11.562;2022-08-19T08:15:09;163.57;;;31.73;;
4603;SDS011;2314;48.272;11.562;2022-08-19T08:17:43;160.70;;;31.10;;
4603;SDS011;2314;48.272;11.562;2022-08-19T08:20:21;156.13;;;29.97;;
4603;SDS011;2314;48.272;11.562;2022-08-19T08:22:49;159.10;;;30.53;;
4603;SDS011;2314;48.272;11.562;2022-08-19T08:25:35;150.47;;;26.93;;
4603;SDS011;2314;48.272;11.562;2022-08-19T08:28:03;149.97;;;29.37;;
4603;SDS011;2314;48.272;11.562;2022-08-19T08:30:33;146.90;;;25.70;;
4603;SDS011;2314;48.272;11.562;2022-08-19T08:33:02;148.90;;;25.63;;
4603;SDS011;2314;48.272;11.562;2022-08-19T08:35:30;145.20;;;25.20;;
4603;SDS011;2314;48.272;11.562;2022-08-19T08:37:59;145.50;;;24.80;;
4603;SDS011;2314;48.272;11.562;2022-08-19T08:40:29;145.17;;;24.80;;
4603;SDS011;2314;48.272;11.562;2022-08-19T08:43:06;140.80;;;23.60;;
4603;SDS011;2314;48.272;11.562;2022-08-19T08:45:38;148.50;;;26.27;;
4603;SDS011;2314;48.272;11.562;2022-08-19T08:48:15;147.17;;;24.87;;
4603;SDS011;2314;48.272;11.562;2022-08-19T08:50:47;144.87;;;25.37;;
4603;SDS011;2314;48.272;11.562;2022-08-19T08:53:18;151.90;;;29.07;;
4603;SDS011;2314;48.272;11.562;2022-08-19T08:55:47;152.67;;;29.00;;
4603;SDS011;2314;48.272;11.562;2022-08-19T08:58:15;158.70;;;32.73;;
4603;SDS011;2314;48.272;11.562;2022-08-19T09:00:51;157.37;;;31.93;;
4603;SDS011;2314;48.272;11.562;2022-08-19T09:03:19;156.80;;;31.70;;
4603;SDS011;2314;48.272;11.562;2022-08-19T09:05:52;155.47;;;32.03;;
4603;SDS011;2314;48.272;11.562;2022-08-19T09:08:30;159.00;;;33.10;;
4603;SDS011;2314;48.272;11.562;2022-08-19T09:11:11;162.03;;;33.67;;
4603;SDS011;2314;48.272;11.562;2022-08-19T09:13:45;161.50;;;35.93;;
4603;SDS011;2314;48.272;11.562;2022-08-19T09:16:30;161.73;;;33.80;;
4603;SDS011;2314;48.272;11.562;2022-08-19T09:19:00;162.43;;;36.47;;
4603;SDS011;2314;48.272;11.562;2022-08-19T09:21:30;160.60;;;33.00;;
4603;SDS011;2314;48.272;11.562;2022-08-19T09:23:59;161.93;;;35.20;;
4603;SDS011;2314;48.272;11.562;2022-08-19T09:26:26;158.67;;;33.30;;
4603;SDS011;2314;48.272;11.562;2022-08-19T09:28:54;156.93;;;33.10;;
4603;SDS011;2314;48.272;11.562;2022-08-19T09:31:24;152.60;;;28.40;;
4603;SDS011;2314;48.272;11.562;2022-08-19T09:33:54;157.33;;;30.97;;
4603;SDS011;2314;48.272;11.562;2022-08-19T09:36:22;151.20;;;30.03;;
4603;SDS011;2314;48.272;11.562;2022-08-19T09:38:51;152.50;;;30.00;;
4603;SDS011;2314;48.272;11.562;2022-08-19T09:41:21;158.97;;;32.67;;
4603;SDS011;2314;48.272;11.562;2022-08-19T09:43:51;152.20;;;30.23;;
4603;SDS011;2314;48.272;11.562;2022-08-19T09:46:21;155.47;;;29.27;;
4603;SDS011;2314;48.272;11.562;2022-08-19T09:48:51;156.70;;;31.17;;
4603;SDS011;2314;48.272;11.562;2022-08-19T09:51:20;156.30;;;30.87;;
4603;SDS011;2314;48.272;11.562;2022-08-19T09:53:49;152.97;;;30.10;;
4603;SDS011;2314;48.272;11.562;2022-08-19T09:56:19;161.43;;;34.03;;
4603;SDS011;2314;48.272;11.562;2022-08-19T09:58:48;162.50;;;35.13;;
4603;SDS011;2314;48.272;11.562;2022-08-19T10:01:16;181.03;;;41.37;;
4603;SDS011;2314;48.272;11.562;2022-08-19T10:03:46;184.37;;;43.20;;
4603;SDS011;2314;48.272;11.562;2022-08-19T10:06:16;182.13;;;43.73;;
4603;SDS011;2314;48.272;11.562;2022-08-19T10:08:44;179.73;;;42.80;;
4603;SDS011;2314;48.272;11.562;2022-08-19T10:11:12;189.63;;;44.13;;
4603;SDS011;2314;48.272;11.562;2022-08-19T10:13:43;179.40;;;42.50;;
4603;SDS011;2314;48.272;11.562;2022-08-19T10:16:13;182.80;;;43.23;;
4603;SDS011;2314;48.272;11.562;2022-08-19T10:18:44;183.90;;;41.20;;
4603;SDS011;2314;48.272;11.562;2022-08-19T10:21:13;182.50;;;40.73;;
4603;SDS011;2314;48.272;11.562;2022-08-19T10:23:44;170.97;;;40.00;;
4603;SDS011;2314;48.272;11.562;2022-08-19T10:26:15;174.00;;;40.90;;
4603;SDS011;2314;48.272;11.562;2022-08-19T10:28:46;175.50;;;40.77;;
4603;SDS011;2314;48.272;11.562;2022-08-19T10:31:14;169.63;;;38.40;;
4603;SDS011;2314;48.272;11.562;2022-08-19T10:33:44;170.13;;;38.23;;
4603;SDS011;2314;48.272;11.562;2022-08-19T10:36:14;172.17;;;40.57;;
4603;SDS011;2314;48.272;11.562;2022-08-19T10:38:43;174.77;;;40.40;;
4603;SDS011;2314;48.272;11.562;2022-08-19T10:41:14;178.80;;;40.53;;
4603;SDS011;2314;48.272;11.562;2022-08-19T10:43:43;166.77;;;38.87;;
4603;SDS011;2314;48.272;11.562;2022-08-19T10:46:12;179.97;;;39.50;;
4603;SDS011;2314;48.272;11.562;2022-08-19T10:48:41;170.20;;;39.33;;
4603;SDS011;2314;48.272;11.562;2022-08-19T10:51:09;167.83;;;36.73;;
4603;SDS011;2314;48.272;11.562;2022-08-19T10:53:54;163.03;;;35.20;;
4603;SDS011;2314;48.272;11.562;2022-08-19T10:56:23;162.80;;;36.53;;
4603;SDS011;2314;48.272;11.562;2022-08-19T10:59:08;156.10;;;32.83;;
4603;SDS011;2314;48.272;11.562;2022-08-19T11:01:39;151.27;;;30.30;;
4603;SDS011;2314;48.272;11.562;2022-08-19T11:04:08;146.63;;;29.63;;
4603;SDS011;2314;48.272;11.562;2022-08-19T11:06:36;134.27;;;21.77;;
4603;SDS011;2314;48.272;11.562;2022-08-19T11:09:03;129.60;;;19.60;;
4603;SDS011;2314;48.272;11.562;2022-08-19T11:11:31;125.77;;;16.00;;
4603;SDS011;2314;48.272;11.562;2022-08-19T11:14:04;122.60;;;14.30;;
4603;SDS011;2314;48.272;11.562;2022-08-19T11:16:32;116.57;;;10.90;;
4603;SDS011;2314;48.272;11.562;2022-08-19T11:19:00;111.87;;;8.60;;
4603;SDS011;2314;48.272;11.562;2022-08-19T11:21:29;111.83;;;9.30;;
4603;SDS011;2314;48.272;11.562;2022-08-19T11:23:59;112.57;;;9.30;;
4603;SDS011;2314;48.272;11.562;2022-08-19T11:26:30;112.27;;;8.10;;
4603;SDS011;2314;48.272;11.562;2022-08-19T11:28:58;109.10;;;6.90;;
4603;SDS011;2314;48.272;11.562;2022-08-19T11:31:27;110.40;;;7.80;;
4603;SDS011;2314;48.272;11.562;2022-08-19T11:33:57;108.57;;;7.20;;
4603;SDS011;2314;48.272;11.562;2022-08-19T11:36:27;107.23;;;6.57;;
4603;SDS011;2314;48.272;11.562;2022-08-19T11:38:56;105.30;;;4.70;;
4603;SDS011;2314;48.272;11.562;2022-08-19T11:41:23;105.80;;;4.47;;
4603;SDS011;2314;48.272;11.562;2022-08-19T11:43:51;107.10;;;4.40;;
4603;SDS011;2314;48.272;11.562;2022-08-19T11:46:20;105.97;;;4.20;;
4603;SDS011;2314;48.272;11.562;2022-08-19T11:48:50;105.30;;;4.07;;
4603;SDS011;2314;48.272;11.562;2022-08-19T11:51:19;104.87;;;3.87;;
4603;SDS011;2314;48.272;11.562;2022-08-19T11:53:51;105.77;;;4.27;;
4603;SDS011;2314;48.272;11.562;2022-08-19T11:56:20;106.27;;;3.90;;
4603;SDS011;2314;48.272;11.562;2022-08-19T11:58:48;107.97;;;4.60;;
4603;SDS011;2314;48.272;11.562;2022-08-19T12:01:17;108.90;;;3.90;;
4603;SDS011;2314;48.272;11.562;2022-08-19T12:03:46;106.37;;;3.60;;
4603;SDS011;2314;48.272;11.562;2022-08-19T12:06:16;106.07;;;3.43;;
4603;SDS011;2314;48.272;11.562;2022-08-19T12:08:49;105.77;;;2.90;;
4603;SDS011;2314;48.272;11.562;2022-08-19T12:11:18;106.57;;;2.93;;
4603;SDS011;2314;48.272;11.562;2022-08-19T12:13:45;105.73;;;2.90;;
4603;SDS011;2314;48.272;11.562;2022-08-19T12:16:14;106.27;;;3.10;;
4603;SDS011;2314;48.272;11.562;2022-08-19T12:18:44;105.30;;;2.40;;
4603;SDS011;2314;48.272;11.562;2022-08-19T12:21:12;106.60;;;2.60;;
4603;SDS011;2314;48.272;11.562;2022-08-19T12:23:41;104.40;;;2.40;;
4603;SDS011;2314;48.272;11.562;2022-08-19T12:26:11;104.07;;;2.73;;
4603;SDS011;2314;48.272;11.562;2022-08-19T12:28:38;103.50;;;2.73;;
4603;SDS011;2314;48.272;11.562;2022-08-19T12:31:06;104.97;;;2.70;;
4603;SDS011;2314;48.272;11.562;2022-08-19T12:33:37;104.30;;;2.43;;
4603;SDS011;2314;48.272;11.562;2022-08-19T12:36:05;105.17;;;2.87;;
4603;SDS011;2314;48.272;11.562;2022-08-19T12:38:36;104.20;;;2.30;;
4603;SDS011;2314;48.272;11.562;2022-08-19T12:41:04;105.37;;;2.50;;
4603;SDS011;2314;48.272;11.562;2022-08-19T12:43:33;103.97;;;2.00;;
4603;SDS011;2314;48.272;11.562;2022-08-19T12:46:01;104.37;;;2.27;;
4603;SDS011;2314;48.272;11.562;2022-08-19T12:48:29;103.60;;;1.70;;
4603;SDS011;2314;48.272;11.562;2022-08-19T12:50:56;105.20;;;2.37;;
4603;SDS011;2314;48.272;11.562;2022-08-19T12:53:23;104.97;;;2.10;;
4603;SDS011;2314;48.272;11.562;2022-08-19T12:55:54;104.50;;;2.00;;
4603;SDS011;2314;48.272;11.562;2022-08-19T12:58:22;105.90;;;2.10;;
4603;SDS011;2314;48.272;11.562;2022-08-19T13:00:50;105.07;;;1.80;;
4603;SDS011;2314;48.272;11.562;2022-08-19T13:03:17;105.83;;;2.40;;
4603;SDS011;2314;48.272;11.562;2022-08-19T13:05:45;106.87;;;2.60;;
4603;SDS011;2314;48.272;11.562;2022-08-19T13:08:12;107.30;;;2.90;;
4603;SDS011;2314;48.272;11.562;2022-08-19T13:10:40;108.30;;;3.07;;
4603;SDS011;2314;48.272;11.562;2022-08-19T13:13:08;109.10;;;3.90;;
4603;SDS011;2314;48.272;11.562;2022-08-19T13:15:36;107.77;;;3.67;;
4603;SDS011;2314;48.272;11.562;2022-08-19T13:18:08;109.37;;;4.10;;
4603;SDS011;2314;48.272;11.562;2022-08-19T13:20:37;109.70;;;5.03;;
4603;SDS011;2314;48.272;11.562;2022-08-19T13:23:06;110.77;;;5.10;;
4603;SDS011;2314;48.272;11.562;2022-08-19T13:25:33;110.90;;;4.70;;
4603;SDS011;2314;48.272;11.562;2022-08-19T13:28:01;112.00;;;5.07;;
4603;SDS011;2314;48.272;11.562;2022-08-19T13:30:29;111.80;;;5.33;;
4603;SDS011;2314;48.272;11.562;2022-08-19T13:33:15;112.27;;;5.60;;
4603;SDS011;2314;48.272;11.562;2022-08-19T13:35:44;113.17;;;5.70;;
4603;SDS011;2314;48.272;11.562;2022-08-19T13:38:14;114.73;;;5.80;;
4603;SDS011;2314;48.272;11.562;2022-08-19T13:40:44;113.87;;;6.10;;
4603;SDS011;2314;48.272;11.562;2022-08-19T13:43:11;114.00;;;6.60;;
4603;SDS011;2314;48.272;11.562;2022-08-19T13:45:39;114.27;;;6.33;;
4603;SDS011;2314;48.272;11.562;2022-08-19T13:48:07;118.30;;;6.77;;
4603;SDS011;2314;48.272;11.562;2022-08-19T13:50:38;112.60;;;6.00;;
4603;SDS011;2314;48.272;11.562;2022-08-19T13:53:08;114.57;;;6.40;;
4603;SDS011;2314;48.272;11.562;2022-08-19T13:55:37;113.90;;;6.03;;
4603;SDS011;2314;48.272;11.562;2022-08-19T13:58:05;114.43;;;5.70;;
4603;SDS011;2314;48.272;11.562;2022-08-19T14:00:32;114.67;;;6.37;;
4603;SDS011;2314;48.272;11.562;2022-08-19T14:03:03;113.30;;;5.20;;
4603;SDS011;2314;48.272;11.562;2022-08-19T14:05:31;113.70;;;6.17;;
4603;SDS011;2314;48.272;11.562;2022-08-19T14:07:59;113.43;;;5.77;;
4603;SDS011;2314;48.272;11.562;2022-08-19T14:10:27;112.00;;;5.70;;
4603;SDS011;2314;48.272;11.562;2022-08-19T14:12:59;112.27;;;5.13;;
4603;SDS011;2314;48.272;11.562;2022-08-19T14:15:28;113.23;;;5.57;;
4603;SDS011;2314;48.272;11.562;2022-08-19T14:17:56;112.40;;;5.47;;
4603;SDS011;2314;48.272;11.562;2022-08-19T14:20:23;112.00;;;5.10;;
4603;SDS011;2314;48.272;11.562;2022-08-19T14:22:50;109.87;;;4.27;;
4603;SDS011;2314;48.272;11.562;2022-08-19T14:25:19;110.30;;;3.93;;
4603;SDS011;2314;48.272;11.562;2022-08-19T14:27:49;111.30;;;3.63;;
4603;SDS011;2314;48.272;11.562;2022-08-19T14:30:18;110.63;;;3.87;;
4603;SDS011;2314;48.272;11.562;2022-08-19T14:32:50;108.53;;;4.20;;
4603;SDS011;2314;48.272;11.562;2022-08-19T14:35:17;107.73;;;3.87;;
4603;SDS011;2314;48.272;11.562;2022-08-19T14:37:44;108.87;;;3.93;;
4603;SDS011;2314;48.272;11.562;2022-08-19T14:40:12;107.77;;;3.90;;